Time;durP1;ratioP1;P1;durP2;ratioP2;P2;SDS_P1;SDS_P2;PMS_P1;PMS_P2;Temp;Humidity;BMP_temperature;BMP_pressure;BME280_temperature;BME280_humidity;BME280_pressure;Samples;Min_cycle;Max_cycle;Signal;HPM_P1;HPM_P2
2023/02/17 00:01:49;;;;;;;;;18.75;12.00;;;;;13.72;65.59;101842.41;6331962;22;46734;-74
2023/02/17 00:04:14;;;;;;;;;15.00;12.25;;;;;13.73;65.85;101840.63;6306215;22;46954;-74
2023/02/17 00:06:39;;;;;;;;;15.75;14.50;;;;;13.71;65.93;101845.97;6336133;22;45753;-74
2023/02/17 00:12:26;;;;;;;;;13.00;11.25;;;;;13.68;66.04;101838.28;6328733;22;45999;-75
2023/02/17 00:14:52;;;;;;;;;12.25;12.00;;;;;13.66;66.41;101850.69;6307556;22;46162;-73
2023/02/17 00:17:17;;;;;;;;;12.75;11.00;;;;;13.63;66.14;101837.75;6335939;22;45646;-73
2023/02/17 00:19:43;;;;;;;;;13.25;11.00;;;;;13.61;66.38;101838.78;6336017;22;45589;-75
2023/02/17 00:22:09;;;;;;;;;13.50;11.00;;;;;13.60;66.42;101839.75;6335465;22;45654;-74
2023/02/17 00:27:56;;;;;;;;;14.50;10.75;;;;;13.63;66.73;101835.09;6335895;22;45792;-74
2023/02/17 00:30:21;;;;;;;;;11.25;10.25;;;;;13.64;66.23;101838.59;6307420;22;45811;-73
2023/02/17 00:32:47;;;;;;;;;10.25;10.25;;;;;13.66;66.79;101834.91;6335868;22;46033;-73
2023/02/17 00:35:13;;;;;;;;;13.00;11.00;;;;;13.68;66.50;101837.44;6307182;22;47648;-73
2023/02/17 00:37:39;;;;;;;;;11.00;9.50;;;;;13.67;66.56;101827.84;6335513;22;45676;-73
2023/02/17 00:43:26;;;;;;;;;11.50;10.75;;;;;13.71;66.70;101824.91;6335400;22;45497;-73
2023/02/17 00:45:51;;;;;;;;;10.75;10.75;;;;;13.71;67.17;101826.72;6336100;22;45982;-74
2023/02/17 00:48:17;;;;;;;;;11.75;10.00;;;;;13.71;67.32;101821.47;6308317;22;45581;-73
2023/02/17 00:50:42;;;;;;;;;9.75;9.75;;;;;13.64;66.64;101807.84;6335591;22;45590;-73
2023/02/17 00:53:07;;;;;;;;;11.00;9.75;;;;;13.73;66.95;101827.44;6335037;22;47387;-73
2023/02/17 00:55:33;;;;;;;;;13.25;11.00;;;;;13.69;67.35;101816.28;6335349;22;45983;-74
2023/02/17 00:57:58;;;;;;;;;12.50;10.00;;;;;13.70;67.41;101814.50;6336047;22;45526;-75
2023/02/17 01:00:23;;;;;;;;;10.50;9.50;;;;;13.70;67.06;101817.13;6335991;22;45792;-74
2023/02/17 01:02:49;;;;;;;;;13.00;11.50;;;;;13.75;67.51;101828.22;6334408;22;46571;-75
2023/02/17 01:05:14;;;;;;;;;11.00;7.75;;;;;13.76;67.32;101822.84;6335434;22;46195;-76
2023/02/17 01:07:40;;;;;;;;;12.00;10.00;;;;;13.65;67.55;101812.16;6306921;22;45802;-75
2023/02/17 01:13:27;;;;;;;;;10.50;9.50;;;;;13.77;67.02;101821.03;6328411;22;45880;-74
2023/02/17 01:15:53;;;;;;;;;12.00;11.00;;;;;13.79;67.61;101827.06;6333636;22;46493;-74
2023/02/17 01:18:21;;;;;;;;;10.25;9.75;;;;;13.79;67.45;101822.63;6333567;22;45523;-76
2023/02/17 01:20:46;;;;;;;;;12.25;9.25;;;;;13.79;67.64;101824.44;6333161;22;45591;-75
2023/02/17 01:23:12;;;;;;;;;10.00;8.25;;;;;13.77;67.62;101821.88;6334046;22;45538;-74
2023/02/17 01:29:00;;;;;;;;;10.25;9.75;;;;;13.71;68.20;101811.75;6333556;22;45919;-76
2023/02/17 01:31:27;;;;;;;;;11.75;10.00;;;;;13.70;68.20;101817.97;6332966;22;45601;-75
2023/02/17 01:33:57;;;;;;;;;14.25;13.00;;;;;13.71;68.21;101817.00;6333217;22;47513;-74
2023/02/17 01:36:23;;;;;;;;;12.00;12.00;;;;;13.69;68.04;101820.69;6333079;22;46017;-74
2023/02/17 01:38:49;;;;;;;;;15.75;12.00;;;;;13.59;68.58;101799.38;6333603;22;45454;-74
2023/02/17 01:41:15;;;;;;;;;11.00;11.00;;;;;13.59;68.67;101809.94;6333756;22;45676;-76
2023/02/17 01:43:41;;;;;;;;;13.00;12.00;;;;;13.64;68.71;101817.53;6333889;22;46311;-75
2023/02/17 01:46:08;;;;;;;;;15.75;12.00;;;;;13.60;68.33;101802.88;6333573;22;46141;-74
2023/02/17 01:48:47;;;;;;;;;15.00;12.00;;;;;13.57;68.62;101808.31;6333954;22;45757;-76
2023/02/17 01:51:20;;;;;;;;;13.00;12.00;;;;;13.58;68.64;101802.97;6333992;22;45595;-76
2023/02/17 01:54:01;;;;;;;;;16.00;15.00;;;;;13.56;69.08;101799.56;6336163;22;45869;-76
2023/02/17 01:56:30;;;;;;;;;13.50;11.50;;;;;13.54;69.09;101805.91;6341061;22;46049;-76
2023/02/17 01:59:19;;;;;;;;;15.50;15.00;;;;;13.51;69.24;101804.28;6341030;22;45822;-76
2023/02/17 02:01:48;;;;;;;;;18.25;14.75;;;;;13.48;69.40;101807.13;6209365;22;45716;-76
2023/02/17 02:04:17;;;;;;;;;17.00;15.00;;;;;13.47;69.61;101807.22;6206790;22;46302;-77
2023/02/17 02:06:43;;;;;;;;;13.00;11.25;;;;;13.40;69.44;101802.34;6207352;22;46826;-75
2023/02/17 02:09:19;;;;;;;;;20.50;15.25;;;;;13.35;69.56;101800.94;6205723;22;45751;-76
2023/02/17 02:11:47;;;;;;;;;17.75;16.00;;;;;13.31;69.90;101802.94;6206267;22;45609;-75
2023/02/17 02:14:12;;;;;;;;;16.00;12.50;;;;;13.27;69.62;101792.72;6206287;22;45705;-76
2023/02/17 02:17:03;;;;;;;;;14.75;13.50;;;;;13.31;70.19;101802.09;6206566;22;46142;-76
2023/02/17 02:20:03;;;;;;;;;19.50;13.75;;;;;13.29;70.04;101802.19;6206213;22;46069;-76
2023/02/17 02:23:11;;;;;;;;;17.75;15.00;;;;;13.24;70.06;101796.38;6115395;23;45813;-75
2023/02/17 02:26:05;;;;;;;;;12.75;12.00;;;;;13.29;70.27;101794.28;6115046;22;46598;-74
2023/02/17 02:28:48;;;;;;;;;15.75;14.50;;;;;13.31;70.16;101796.81;6116022;23;46870;-76
2023/02/17 02:31:28;;;;;;;;;14.25;11.50;;;;;13.32;70.34;101801.16;6115465;23;45682;-73
2023/02/17 02:34:01;;;;;;;;;16.25;14.75;;;;;13.31;70.49;101810.84;6116196;23;45551;-73
2023/02/17 02:36:43;;;;;;;;;16.75;12.00;;;;;13.30;70.87;101797.75;6116456;23;45502;-74
2023/02/17 02:39:10;;;;;;;;;15.50;15.25;;;;;13.25;70.67;101798.06;6174458;22;47439;-72
2023/02/17 02:41:44;;;;;;;;;16.00;11.75;;;;;13.27;70.52;101792.72;6205259;22;45932;-74
2023/02/17 02:44:13;;;;;;;;;14.75;11.75;;;;;13.26;71.00;101786.59;6205832;22;45636;-75
2023/02/17 02:46:39;;;;;;;;;14.25;11.50;;;;;13.27;70.83;101783.03;6205998;22;45753;-74
2023/02/17 02:49:04;;;;;;;;;11.50;10.50;;;;;13.17;70.83;101770.56;6205292;22;46916;-74
2023/02/17 02:52:01;;;;;;;;;12.00;11.75;;;;;13.23;70.77;101772.75;6205936;22;45760;-73
2023/02/17 02:58:02;;;;;;;;;14.00;12.75;;;;;13.30;70.68;101781.97;6252336;22;45600;-74
2023/02/17 03:00:47;;;;;;;;;11.75;9.50;;;;;13.29;70.94;101778.50;6332962;22;46152;-77
2023/02/17 03:03:39;;;;;;;;;15.00;12.25;;;;;13.24;71.29;101780.56;6333268;22;45628;-76
2023/02/17 03:06:14;;;;;;;;;15.50;12.75;;;;;13.24;71.41;101785.00;6333569;22;45601;-73
2023/02/17 03:08:57;;;;;;;;;11.00;10.50;;;;;13.26;70.98;101791.84;6332502;22;47606;-74
2023/02/17 03:14:48;;;;;;;;;11.00;10.50;;;;;13.25;71.30;101784.91;6328819;22;46291;-74
2023/02/17 03:17:13;;;;;;;;;12.00;10.25;;;;;13.28;71.25;101782.06;6332820;22;45457;-73
2023/02/17 03:19:39;;;;;;;;;15.00;11.50;;;;;13.20;71.51;101768.56;6332843;22;45798;-75
2023/02/17 03:22:18;;;;;;;;;13.25;12.75;;;;;13.29;71.44;101785.53;6333097;22;46122;-74
2023/02/17 03:24:44;;;;;;;;;11.75;11.75;;;;;13.28;71.04;101779.44;6304715;22;45953;-75
2023/02/17 03:30:31;;;;;;;;;15.50;13.50;;;;;13.29;71.22;101781.13;6332532;22;45895;-75
2023/02/17 03:32:56;;;;;;;;;11.25;10.50;;;;;13.33;71.42;101779.16;6304584;22;46306;-74
2023/02/17 03:35:23;;;;;;;;;14.00;12.25;;;;;13.35;71.20;101779.88;6332767;22;45732;-74
2023/02/17 03:37:48;;;;;;;;;11.00;10.75;;;;;13.35;71.69;101786.00;6332223;22;45853;-72
2023/02/17 03:40:13;;;;;;;;;12.00;11.00;;;;;13.35;71.90;101772.00;6303968;22;48360;-74
2023/02/17 03:42:39;;;;;;;;;11.00;10.00;;;;;13.31;71.53;101759.97;6332860;22;46123;-75
2023/02/17 03:45:04;;;;;;;;;11.25;10.75;;;;;13.36;70.99;101773.69;6332921;22;45728;-73
2023/02/17 03:47:30;;;;;;;;;11.00;8.00;;;;;13.40;71.71;101773.38;6333496;22;45624;-75
2023/02/17 03:49:55;;;;;;;;;10.75;9.50;;;;;13.41;71.35;101779.50;6332074;22;47335;-74
2023/02/17 03:52:21;;;;;;;;;11.00;11.00;;;;;13.35;71.46;101772.84;6332795;22;46247;-74
2023/02/17 03:54:46;;;;;;;;;12.00;10.00;;;;;13.42;71.44;101773.28;6332031;22;45896;-73
2023/02/17 04:00:33;;;;;;;;;8.75;8.75;;;;;13.45;71.70;101788.88;6332256;22;46019;-76
2023/02/17 04:02:59;;;;;;;;;9.50;9.00;;;;;13.46;71.74;101785.31;6333013;22;46276;-74
2023/02/17 04:05:24;;;;;;;;;12.25;11.75;;;;;13.48;71.32;101793.97;6331977;22;45674;-73
2023/02/17 04:07:51;;;;;;;;;10.25;9.50;;;;;13.47;71.46;101800.16;6332326;22;45687;-72
2023/02/17 04:10:16;;;;;;;;;11.00;9.50;;;;;13.42;71.71;101787.31;6331674;22;47463;-72
2023/02/17 04:16:05;;;;;;;;;11.00;10.00;;;;;13.44;71.84;101803.00;6325722;22;45865;-74
2023/02/17 04:18:31;;;;;;;;;11.00;9.00;;;;;13.42;72.09;101805.72;6332419;22;45486;-75
2023/02/17 04:20:57;;;;;;;;;10.75;10.00;;;;;13.37;72.47;101791.19;6331761;22;46481;-76
2023/02/17 04:23:22;;;;;;;;;10.00;9.25;;;;;13.38;72.56;101801.63;6332986;22;46661;-76
2023/02/17 04:25:48;;;;;;;;;11.75;10.00;;;;;13.37;72.68;101804.34;6331903;22;45520;-74
2023/02/17 04:28:14;;;;;;;;;12.75;11.50;;;;;13.37;72.24;101810.44;6332789;22;45453;-76
2023/02/17 04:30:45;;;;;;;;;10.50;10.00;;;;;13.30;72.37;101803.03;6332255;22;45635;-73
2023/02/17 04:33:11;;;;;;;;;10.00;9.00;;;;;13.31;72.80;101799.47;6332491;22;46188;-74
2023/02/17 04:35:37;;;;;;;;;11.25;11.00;;;;;13.32;72.46;101817.78;6332530;22;45608;-75
2023/02/17 04:38:03;;;;;;;;;11.50;8.00;;;;;13.32;72.46;101812.53;6333108;22;45746;-75
2023/02/17 04:40:29;;;;;;;;;12.25;10.50;;;;;13.34;72.48;101826.41;6331588;22;46388;-75
2023/02/17 04:46:16;;;;;;;;;13.50;11.25;;;;;13.38;72.76;101820.03;6332181;22;45752;-75
2023/02/17 04:48:42;;;;;;;;;10.50;9.00;;;;;13.36;72.58;101807.91;6332114;22;46008;-74
2023/02/17 04:51:07;;;;;;;;;10.50;9.75;;;;;13.39;72.59;101819.06;6333613;22;46232;-75
2023/02/17 04:53:32;;;;;;;;;8.50;7.00;;;;;13.41;72.69;101817.19;6333427;22;47003;-75
2023/02/17 04:55:58;;;;;;;;;9.75;8.00;;;;;13.39;72.44;101813.81;6333682;22;45485;-76
2023/02/17 04:58:23;;;;;;;;;11.00;10.00;;;;;13.45;72.79;101820.47;6331740;22;46197;-75
2023/02/17 05:00:49;;;;;;;;;10.00;9.00;;;;;13.48;72.46;101827.34;6333765;22;45610;-75
2023/02/17 05:03:16;;;;;;;;;11.00;10.00;;;;;13.49;72.69;101818.50;6333856;22;46291;-76
2023/02/17 05:05:41;;;;;;;;;8.00;7.00;;;;;13.48;72.22;101819.44;6333178;22;45593;-75
2023/02/17 05:08:07;;;;;;;;;10.50;10.25;;;;;13.54;72.79;101824.31;6333734;22;45590;-74
2023/02/17 05:10:34;;;;;;;;;10.25;9.00;;;;;13.52;73.10;101824.41;6332855;22;47262;-73
2023/02/17 05:16:20;;;;;;;;;8.75;8.00;;;;;13.53;72.78;101833.16;6331727;22;45783;-73
2023/02/17 05:18:46;;;;;;;;;9.50;8.50;;;;;13.51;73.25;101827.97;6333971;22;45993;-74
2023/02/17 05:21:11;;;;;;;;;8.75;8.75;;;;;13.53;73.10;101835.78;6333556;22;46472;-75
2023/02/17 05:23:40;;;;;;;;;8.75;8.75;;;;;13.52;73.05;101842.84;6306030;22;46087;-74
2023/02/17 05:26:08;;;;;;;;;10.00;9.00;;;;;13.49;73.33;101832.53;6333720;22;45560;-74
2023/02/17 05:28:35;;;;;;;;;11.25;10.00;;;;;13.51;73.33;101835.03;6333043;22;46032;-75
2023/02/17 05:31:01;;;;;;;;;9.75;9.50;;;;;13.47;72.80;101834.41;6333639;22;45799;-72
2023/02/17 05:33:27;;;;;;;;;9.00;9.00;;;;;13.47;72.82;101837.03;6332938;22;45836;-73
2023/02/17 05:35:52;;;;;;;;;6.25;6.25;;;;;13.48;73.30;101835.25;6333807;22;45538;-74
2023/02/17 05:38:17;;;;;;;;;12.75;9.75;;;;;13.47;72.98;101836.19;6334011;22;45486;-77
2023/02/17 05:40:43;;;;;;;;;10.75;9.75;;;;;13.46;73.16;101843.22;6305061;22;47376;-75
2023/02/17 05:46:29;;;;;;;;;10.00;9.00;;;;;13.47;72.90;101837.03;6333547;22;45992;-75
2023/02/17 05:48:55;;;;;;;;;10.50;10.00;;;;;13.44;72.75;101827.53;6306416;22;45687;-72
2023/02/17 05:51:20;;;;;;;;;9.50;8.75;;;;;13.50;73.09;101836.81;6333556;22;45655;-75
2023/02/17 05:53:45;;;;;;;;;10.50;8.50;;;;;13.51;73.25;101832.41;6331119;22;45964;-76
2023/02/17 05:56:11;;;;;;;;;8.50;7.50;;;;;13.51;73.24;101842.94;6332994;22;45620;-75
2023/02/17 06:01:58;;;;;;;;;11.00;9.00;;;;;13.43;73.31;101844.28;6332485;22;46407;-74
2023/02/17 06:04:23;;;;;;;;;8.00;8.00;;;;;13.45;72.96;101844.16;6333433;22;46037;-75
2023/02/17 06:06:49;;;;;;;;;8.00;5.75;;;;;13.36;72.89;101818.44;6333792;22;45815;-75
2023/02/17 06:09:14;;;;;;;;;7.00;5.50;;;;;13.44;73.48;101843.31;6333147;22;45760;-74
2023/02/17 06:11:40;;;;;;;;;6.75;6.75;;;;;13.47;73.11;101837.03;6333019;22;45447;-74
2023/02/17 06:14:05;;;;;;;;;8.25;6.50;;;;;13.44;72.87;101843.31;6333577;22;46215;-75
2023/02/17 06:16:31;;;;;;;;;11.00;9.00;;;;;13.43;73.62;101836.38;6333064;22;45702;-74
2023/02/17 06:18:58;;;;;;;;;8.50;8.00;;;;;13.34;73.27;101821.16;6333760;22;45548;-75
2023/02/17 06:21:27;;;;;;;;;11.75;11.00;;;;;13.47;73.36;101850.19;6333479;22;46371;-75
2023/02/17 06:23:53;;;;;;;;;8.25;7.00;;;;;13.49;73.57;101858.00;6333684;22;46052;-74
2023/02/17 06:26:18;;;;;;;;;8.75;8.75;;;;;13.47;73.64;101866.00;6333403;22;45505;-76
2023/02/17 06:32:05;;;;;;;;;6.00;6.00;;;;;13.47;73.57;101878.31;6332740;22;46035;-75
2023/02/17 06:34:30;;;;;;;;;9.25;6.50;;;;;13.44;73.74;101879.38;6332722;22;46241;-75
2023/02/17 06:36:56;;;;;;;;;8.25;7.00;;;;;13.45;73.50;101883.66;6333504;22;45515;-76
2023/02/17 06:39:21;;;;;;;;;9.75;9.00;;;;;13.47;73.33;101891.47;6333031;22;45423;-75
2023/02/17 06:41:46;;;;;;;;;7.75;6.00;;;;;13.46;73.34;101890.63;6332286;22;45667;-73
2023/02/17 06:47:34;;;;;;;;;8.50;6.75;;;;;13.50;74.08;101897.38;6333113;22;45696;-76
2023/02/17 06:50:00;;;;;;;;;9.50;7.75;;;;;13.49;73.80;101900.13;6333141;22;45689;-77
2023/02/17 06:52:25;;;;;;;;;8.00;8.00;;;;;13.51;73.15;101906.13;6331920;22;47484;-74
2023/02/17 06:54:51;;;;;;;;;8.25;8.00;;;;;13.53;74.00;101905.09;6332592;22;46028;-72
2023/02/17 06:57:16;;;;;;;;;6.00;5.00;;;;;13.52;73.93;101908.66;6332547;22;45900;-74
2023/02/17 06:59:41;;;;;;;;;4.50;3.75;;;;;13.57;73.89;101929.44;6303532;22;45724;-71
2023/02/17 07:02:11;;;;;;;;;8.00;7.00;;;;;13.55;73.60;101919.00;6331632;22;47102;-68
2023/02/17 07:04:36;;;;;;;;;7.00;5.00;;;;;13.55;73.97;101931.34;6331963;22;46143;-68
2023/02/17 07:07:02;;;;;;;;;9.00;5.50;;;;;13.54;73.91;101930.50;6305120;22;45983;-70
2023/02/17 07:09:27;;;;;;;;;8.00;5.00;;;;;13.55;73.83;101926.91;6333084;22;45677;-72
2023/02/17 07:11:52;;;;;;;;;9.00;7.00;;;;;13.58;74.06;101928.50;6332157;22;47673;-71
2023/02/17 07:17:39;;;;;;;;;7.00;5.75;;;;;13.54;74.07;101921.75;6326466;22;45643;-71
2023/02/17 07:20:06;;;;;;;;;7.00;6.00;;;;;13.59;74.45;101928.41;6332012;22;45626;-72
2023/02/17 07:22:31;;;;;;;;;5.50;5.50;;;;;13.59;74.35;101931.06;6332732;22;47542;-71
2023/02/17 07:24:56;;;;;;;;;6.25;6.00;;;;;13.61;74.19;101936.19;6332247;22;46216;-72
2023/02/17 07:27:22;;;;;;;;;5.00;4.25;;;;;13.55;74.29;101926.91;6331845;22;45608;-72
2023/02/17 07:33:09;;;;;;;;;6.75;5.00;;;;;13.58;74.29;101934.63;6332823;22;45712;-71
2023/02/17 07:35:44;;;;;;;;;8.75;8.00;;;;;13.59;74.49;101940.75;6331789;22;46912;-72
2023/02/17 07:38:09;;;;;;;;;4.50;3.00;;;;;13.57;74.71;101937.34;6332023;22;45520;-71
2023/02/17 07:40:35;;;;;;;;;4.75;4.75;;;;;13.63;74.06;101947.50;6304574;22;45788;-72
2023/02/17 07:43:00;;;;;;;;;5.00;3.00;;;;;13.57;74.65;101929.44;6332217;22;45498;-72
2023/02/17 07:45:26;;;;;;;;;8.75;6.25;;;;;13.57;74.29;101932.94;6332800;22;46199;-72
2023/02/17 07:47:51;;;;;;;;;5.00;4.75;;;;;13.55;74.44;101939.25;6333144;22;45674;-72
2023/02/17 07:50:16;;;;;;;;;6.25;4.00;;;;;13.57;74.76;101938.19;6332266;22;45950;-72
2023/02/17 07:52:42;;;;;;;;;6.00;4.00;;;;;13.57;74.19;101940.81;6332683;22;45703;-74
2023/02/17 07:55:07;;;;;;;;;5.00;4.00;;;;;13.64;74.70;101955.31;6332722;22;45687;-72
2023/02/17 07:57:32;;;;;;;;;3.00;3.00;;;;;13.67;74.46;101956.88;6332312;22;45785;-72
2023/02/17 08:03:20;;;;;;;;;4.50;4.00;;;;;13.69;74.32;101963.78;6332812;22;46082;-73
2023/02/17 08:05:45;;;;;;;;;4.50;3.50;;;;;13.70;74.70;101964.63;6331899;22;45984;-71
2023/02/17 08:13:44;;;;;;;;;4.00;4.00;;;;;13.63;74.38;101960.66;6332288;22;46127;-71
2023/02/17 08:16:09;;;;;;;;;5.00;3.00;;;;;13.64;74.65;101949.19;6332676;22;45967;-70
2023/02/17 08:18:34;;;;;;;;;3.50;2.00;;;;;13.68;74.89;101969.13;6332009;22;45761;-72
2023/02/17 08:21:00;;;;;;;;;3.25;2.25;;;;;13.66;74.48;101963.94;6333015;22;45917;-71
2023/02/17 08:23:25;;;;;;;;;2.75;2.00;;;;;13.71;74.39;101975.03;6332150;22;47477;-72
2023/02/17 08:25:51;;;;;;;;;3.25;3.00;;;;;13.77;74.60;101984.34;6333529;22;45522;-72
2023/02/17 08:28:16;;;;;;;;;2.00;2.00;;;;;13.81;74.40;101978.81;6333864;22;45516;-73
2023/02/17 08:30:42;;;;;;;;;3.75;3.00;;;;;13.82;74.33;101971.72;6305464;22;45927;-72
2023/02/17 08:33:07;;;;;;;;;2.00;2.00;;;;;13.86;74.03;101973.25;6333406;22;47352;-73
2023/02/17 08:35:32;;;;;;;;;2.00;2.00;;;;;13.88;73.93;101968.72;6333953;22;45537;-71
2023/02/17 08:37:58;;;;;;;;;2.00;2.00;;;;;13.93;74.12;101968.44;6333338;22;46027;-73
2023/02/17 08:40:23;;;;;;;;;2.50;2.50;;;;;13.98;73.78;101984.81;6333388;22;45907;-72
2023/02/17 08:42:49;;;;;;;;;3.00;3.00;;;;;14.01;73.76;101979.34;6333957;22;46487;-71
2023/02/17 08:48:36;;;;;;;;;3.00;3.00;;;;;14.01;73.96;101977.56;6333918;22;45859;-69
2023/02/17 08:51:02;;;;;;;;;3.50;3.00;;;;;14.04;73.55;101981.75;6334480;22;45478;-71
2023/02/17 08:53:28;;;;;;;;;2.00;2.00;;;;;14.02;73.39;101970.50;6333055;22;46848;-72
2023/02/17 08:55:53;;;;;;;;;3.75;3.75;;;;;14.05;73.49;101975.56;6333894;22;45500;-72
2023/02/17 08:58:18;;;;;;;;;2.00;2.00;;;;;14.10;73.46;101978.75;6333816;22;45442;-71
2023/02/17 09:04:08;;;;;;;;;3.00;2.00;;;;;14.10;73.70;101978.75;6333477;22;45770;-74
2023/02/17 09:06:40;;;;;;;;;2.50;2.00;;;;;14.10;73.84;101990.13;6305690;22;47992;-74
2023/02/17 09:09:07;;;;;;;;;1.75;1.00;;;;;14.08;73.84;101981.50;6333960;22;45785;-74
2023/02/17 09:11:33;;;;;;;;;3.25;3.25;;;;;14.12;73.17;101983.00;6306942;22;45662;-72
2023/02/17 09:13:58;;;;;;;;;3.00;2.00;;;;;14.13;73.18;101979.41;6333421;22;46693;-73
2023/02/17 09:16:24;;;;;;;;;3.00;2.00;;;;;14.15;73.57;101977.50;6305423;22;47641;-74
2023/02/17 09:18:53;;;;;;;;;3.75;3.00;;;;;14.18;73.41;101993.16;6334037;22;45491;-72
2023/02/17 09:21:19;;;;;;;;;3.00;2.00;;;;;14.20;73.30;101990.38;6334275;22;45736;-72
2023/02/17 09:23:45;;;;;;;;;2.50;2.00;;;;;14.24;73.28;101994.53;6334061;22;45600;-70
2023/02/17 09:26:13;;;;;;;;;2.00;2.00;;;;;14.26;73.47;101995.28;6333955;22;45613;-71
2023/02/17 09:28:39;;;;;;;;;2.25;2.00;;;;;14.28;73.25;102002.16;6331402;22;45632;-72
2023/02/17 09:31:13;;;;;;;;;3.50;2.75;;;;;14.28;72.96;101988.97;6333293;22;45491;-73
2023/02/17 09:33:39;;;;;;;;;2.50;2.50;;;;;14.30;72.94;101992.31;6333150;22;45733;-73
2023/02/17 09:36:07;;;;;;;;;3.25;1.75;;;;;14.27;73.10;101989.91;6332952;22;46141;-71
2023/02/17 09:38:32;;;;;;;;;2.00;2.00;;;;;14.35;72.78;101994.69;6333129;22;45636;-71
2023/02/17 09:41:38;;;;;;;;;4.50;3.00;;;;;14.42;73.09;102005.69;6333802;22;45524;-73
2023/02/17 09:47:32;;;;;;;;;1.75;1.75;;;;;14.50;72.80;101995.53;6333707;22;46000;-70
2023/02/17 09:50:08;;;;;;;;;1.75;1.75;;;;;14.55;72.85;102002.19;6305195;22;45585;-71
2023/02/17 09:52:52;;;;;;;;;1.50;1.50;;;;;14.56;72.64;102000.41;6334126;22;45620;-72
2023/02/17 09:55:43;;;;;;;;;1.75;1.75;;;;;14.54;72.27;101983.81;6333376;22;46868;-71
2023/02/17 09:58:14;;;;;;;;;2.00;2.00;;;;;14.64;72.15;101987.53;6333558;22;47079;-71
2023/02/17 10:04:13;;;;;;;;;0.00;0.00;;;;;14.67;71.87;101987.34;6333872;22;45486;-71
2023/02/17 10:06:42;;;;;;;;;1.50;1.00;;;;;14.76;71.94;101997.28;6332988;22;46451;-72
2023/02/17 10:09:22;;;;;;;;;1.25;1.00;;;;;14.78;71.64;101991.91;6332338;22;46184;-73
2023/02/17 10:12:12;;;;;;;;;4.25;4.25;;;;;14.81;71.87;102000.47;6332881;22;45489;-72
2023/02/17 10:14:48;;;;;;;;;2.00;2.00;;;;;14.83;71.66;102005.63;6333206;22;45584;-70
2023/02/17 10:17:23;;;;;;;;;4.25;3.75;;;;;14.72;71.52;101987.88;6332910;22;46296;-73
2023/02/17 10:20:12;;;;;;;;;3.00;2.00;;;;;14.84;71.46;102008.19;6332642;22;46857;-72
2023/02/17 10:22:43;;;;;;;;;2.00;2.00;;;;;14.86;71.16;102013.34;6305081;22;45767;-70
2023/02/17 10:25:18;;;;;;;;;2.00;2.00;;;;;14.82;71.08;102017.97;6333422;22;45631;-71
2023/02/17 10:28:08;;;;;;;;;3.00;2.00;;;;;14.81;71.17;102012.81;6332630;22;46372;-71
2023/02/17 10:30:45;;;;;;;;;1.75;1.00;;;;;14.81;71.45;102026.00;6332340;22;46888;-72
2023/02/17 10:33:31;;;;;;;;;1.50;1.25;;;;;14.81;71.16;102008.38;6332628;22;45637;-71
2023/02/17 10:36:24;;;;;;;;;2.50;2.00;;;;;14.85;71.13;102019.56;6332730;22;45989;-71
2023/02/17 10:38:53;;;;;;;;;2.50;2.50;;;;;14.83;71.12;102013.56;6332652;22;45749;-73
2023/02/17 10:41:34;;;;;;;;;1.50;1.50;;;;;14.81;71.13;102020.72;6332641;22;46994;-73
2023/02/17 10:44:07;;;;;;;;;2.00;1.00;;;;;14.80;70.75;102017.22;6304725;22;46043;-72
2023/02/17 10:46:33;;;;;;;;;3.00;3.00;;;;;14.76;71.20;102013.09;6332886;22;45503;-72
2023/02/17 10:49:00;;;;;;;;;4.00;2.00;;;;;14.79;71.02;102015.53;6332063;22;47209;-72
2023/02/17 10:51:28;;;;;;;;;2.00;2.00;;;;;14.80;71.10;102009.31;6333303;22;46042;-72
2023/02/17 10:54:11;;;;;;;;;1.00;1.00;;;;;14.77;70.79;102021.88;6333058;22;45721;-72
2023/02/17 10:56:47;;;;;;;;;2.75;2.00;;;;;14.79;70.77;102022.63;6333766;22;45616;-73
2023/02/17 10:59:17;;;;;;;;;2.00;2.00;;;;;14.77;70.73;102016.59;6332343;22;46342;-72
2023/02/17 11:01:43;;;;;;;;;3.00;2.00;;;;;14.76;71.17;102014.91;6333042;22;46617;-72
2023/02/17 11:04:10;;;;;;;;;2.25;2.25;;;;;14.77;70.88;102014.81;6330906;22;45533;-72
2023/02/17 11:06:43;;;;;;;;;2.50;2.00;;;;;14.81;70.74;102015.44;6305137;22;45916;-72
2023/02/17 11:09:27;;;;;;;;;4.00;2.00;;;;;14.82;70.85;102017.97;6333161;22;46534;-71
2023/02/17 11:11:59;;;;;;;;;3.00;2.75;;;;;14.86;70.54;102018.63;6333164;22;46838;-73
2023/02/17 11:14:32;;;;;;;;;3.50;3.25;;;;;14.87;70.35;102013.25;6333470;22;45536;-73
2023/02/17 11:17:11;;;;;;;;;2.50;2.00;;;;;14.84;70.49;102004.69;6332944;22;45518;-73
2023/02/17 11:19:37;;;;;;;;;3.00;2.00;;;;;14.85;70.53;102027.47;6332768;22;47646;-73
2023/02/17 11:22:05;;;;;;;;;2.50;2.50;;;;;14.82;70.63;102031.19;6333827;22;45548;-74
2023/02/17 11:24:33;;;;;;;;;3.75;3.00;;;;;14.86;70.37;102024.75;6333302;22;45789;-71
2023/02/17 11:26:59;;;;;;;;;4.00;4.00;;;;;14.85;70.55;102030.97;6333630;22;45471;-72
2023/02/17 11:29:26;;;;;;;;;2.00;1.75;;;;;14.84;70.50;102033.72;6332475;22;46556;-73
2023/02/17 11:32:05;;;;;;;;;4.33;4.33;;;;;14.87;70.53;102029.06;6332279;22;46102;-73
2023/02/17 11:34:34;;;;;;;;;3.00;3.00;;;;;14.92;70.67;102026.97;6333536;22;45687;-71
2023/02/17 11:37:20;;;;;;;;;2.00;2.00;;;;;14.98;70.45;102026.56;6333614;22;45710;-72
2023/02/17 11:39:48;;;;;;;;;4.00;3.00;;;;;14.99;69.98;102015.06;6331731;22;47111;-73
2023/02/17 11:42:23;;;;;;;;;3.75;3.75;;;;;15.07;70.16;102014.53;6333512;22;45701;-73
2023/02/17 11:44:50;;;;;;;;;5.00;5.00;;;;;15.12;70.22;102028.28;6333096;22;45469;-72
2023/02/17 11:47:18;;;;;;;;;2.50;1.50;;;;;15.20;69.95;102022.50;6333218;22;45892;-72
2023/02/17 11:49:59;;;;;;;;;3.75;3.75;;;;;15.24;70.04;102027.44;6333041;22;46423;-73
2023/02/17 11:52:50;;;;;;;;;3.00;3.00;;;;;15.29;69.69;102030.63;6333802;22;45894;-72
2023/02/17 11:55:41;;;;;;;;;3.00;3.00;;;;;15.30;69.64;102018.28;6304861;22;45637;-74
2023/02/17 11:58:34;;;;;;;;;4.00;3.75;;;;;15.27;69.69;102006.13;6332430;22;45670;-74
2023/02/17 12:04:31;;;;;;;;;2.00;1.75;;;;;15.43;69.24;102006.78;6332472;22;45901;-72
2023/02/17 12:07:17;;;;;;;;;4.25;3.25;;;;;15.45;69.19;102002.22;6332092;22;45671;-72
2023/02/17 12:09:57;;;;;;;;;3.50;3.50;;;;;15.48;69.26;102001.16;6304252;22;45702;-73
2023/02/17 12:12:51;;;;;;;;;0.25;0.25;;;;;15.53;69.24;101999.09;6332850;22;45585;-72
2023/02/17 12:22:49;;;;;;;;;2.00;2.00;;;;;15.71;68.40;101992.50;6300871;22;45751;-70
2023/02/17 12:25:24;;;;;;;;;3.25;1.00;;;;;15.79;68.27;101991.97;6300303;22;46403;-72
2023/02/17 12:28:04;;;;;;;;;3.00;3.00;;;;;15.83;68.09;101977.56;6272716;22;46960;-71
2023/02/17 12:30:42;;;;;;;;;3.00;2.75;;;;;15.85;68.09;101970.38;6300984;22;45695;-73
2023/02/17 12:33:39;;;;;;;;;2.00;2.00;;;;;15.95;67.79;101969.63;6300329;22;45826;-72
2023/02/17 12:36:09;;;;;;;;;2.50;2.50;;;;;16.05;67.68;101971.59;6300909;22;45603;-71
2023/02/17 12:38:42;;;;;;;;;1.75;1.75;;;;;16.10;67.21;101974.75;6300995;22;45891;-72
2023/02/17 12:41:21;;;;;;;;;2.00;2.00;;;;;16.13;66.87;101969.25;6300050;22;45575;-73
2023/02/17 12:43:53;;;;;;;;;2.25;2.00;;;;;16.16;66.98;101969.03;6301015;22;45668;-72
2023/02/17 12:46:27;;;;;;;;;2.00;1.75;;;;;16.17;66.67;101966.28;6299918;22;46511;-71
2023/02/17 12:48:58;;;;;;;;;2.50;2.00;;;;;16.25;66.68;101960.41;6300089;22;46476;-70
2023/02/17 12:51:29;;;;;;;;;1.75;1.25;;;;;16.31;66.24;101973.19;6300033;22;45512;-70
2023/02/17 12:54:17;;;;;;;;;2.00;2.00;;;;;16.35;66.06;101974.66;6300816;22;45428;-71
2023/02/17 12:57:11;;;;;;;;;2.00;2.00;;;;;16.37;66.03;101983.31;6300116;22;47440;-72
2023/02/17 12:59:49;;;;;;;;;1.25;1.00;;;;;16.30;66.29;101969.69;6298949;22;45882;-72
2023/02/17 13:02:23;;;;;;;;;2.75;2.00;;;;;16.31;65.98;101971.38;6300020;22;45672;-72
2023/02/17 13:04:52;;;;;;;;;1.00;1.00;;;;;16.33;66.28;101972.13;6272518;22;45955;-71
2023/02/17 13:07:28;;;;;;;;;3.50;2.00;;;;;16.34;65.95;101968.53;6300690;22;45478;-73